Time;durP1;ratioP1;P1;durP2;ratioP2;P2;SDS_P1;SDS_P2;PMS_P1;PMS_P2;Temp;Humidity;BMP_temperature;BMP_pressure;BME280_temperature;BME280_humidity;BME280_pressure;Samples;Min_cycle;Max_cycle;Signal;HPM_P1;HPM_P2
2022/05/28 00:00:17;;;;;;;;;;;;;;;13.85;45.96;101168.34;5026641;28;6799;-74
2022/05/28 00:02:44;;;;;;;;;;;;;;;13.83;46.45;101164.81;5027777;28;7499;-74
2022/05/28 00:05:09;;;;;;;;;;;;;;;13.80;45.59;101156.91;5014689;28;6792;-74
2022/05/28 00:07:35;;;;;;;;;;;;;;;13.81;45.54;101158.69;4994088;28;6804;-74
2022/05/28 00:10:01;;;;;;;;;;;;;;;13.81;45.91;101158.69;5029882;28;6791;-74
2022/05/28 00:12:31;;;;;;;;;;;;;;;13.81;46.34;101153.53;4980898;28;7205;-74
2022/05/28 00:14:58;;;;;;;;;;;;;;;13.81;45.86;101153.53;5014983;28;6896;-74
2022/05/28 00:17:24;;;;;;;;;;;;;;;13.80;45.67;101151.75;5028194;28;7109;-74
2022/05/28 00:19:51;;;;;;;;;;;;;;;13.78;46.26;101146.56;4996149;28;6784;-74
2022/05/28 00:22:18;;;;;;;;;;;;;;;13.77;46.31;101149.94;5012989;28;6800;-74
2022/05/28 00:24:44;;;;;;;;;;;;;;;13.75;46.45;101148.97;5004179;28;6960;-74
2022/05/28 00:27:09;;;;;;;;;;;;;;;13.72;45.84;101149.72;5030500;28;6799;-74
2022/05/28 00:29:35;;;;;;;;;;;;;;;13.70;46.28;101156.47;4998122;28;6819;-74
2022/05/28 00:32:00;;;;;;;;;;;;;;;13.68;46.89;101157.25;5013237;28;7114;-74
2022/05/28 00:34:27;;;;;;;;;;;;;;;13.62;46.00;101150.13;4999879;28;6815;-74
2022/05/28 00:36:53;;;;;;;;;;;;;;;13.59;46.25;101143.13;4997837;28;6987;-74
2022/05/28 00:39:19;;;;;;;;;;;;;;;13.57;46.98;101141.28;5018348;28;6910;-74
2022/05/28 00:41:44;;;;;;;;;;;;;;;13.56;46.60;101142.09;4998367;28;8085;-74
2022/05/28 00:44:10;;;;;;;;;;;;;;;13.55;46.68;101143.75;5014346;28;7188;-74
2022/05/28 00:46:36;;;;;;;;;;;;;;;13.53;46.79;101142.81;5011584;28;6958;-74
2022/05/28 00:49:08;;;;;;;;;;;;;;;13.53;46.79;101140.22;5028678;28;6796;-74
2022/05/28 00:51:47;;;;;;;;;;;;;;;13.53;47.16;101144.53;5032108;28;6893;-74
2022/05/28 00:54:13;;;;;;;;;;;;;;;13.51;46.53;101133.25;5000906;28;6896;-74
2022/05/28 00:56:39;;;;;;;;;;;;;;;13.50;46.93;101131.47;4996411;28;6864;-74
2022/05/28 00:59:06;;;;;;;;;;;;;;;13.50;47.12;101134.06;5001706;28;7146;-74
2022/05/28 01:01:36;;;;;;;;;;;;;;;13.50;47.29;101134.06;5030484;28;7194;-74
2022/05/28 01:04:37;;;;;;;;;;;;;;;13.50;46.79;101139.19;5018254;28;6854;-74
2022/05/28 01:07:38;;;;;;;;;;;;;;;13.45;47.04;101127.00;5012130;28;7963;-74
2022/05/28 01:10:22;;;;;;;;;;;;;;;13.45;46.98;101124.44;5020320;28;6831;-75
2022/05/28 01:13:06;;;;;;;;;;;;;;;13.46;47.75;101123.63;5019146;28;8272;-74
2022/05/28 01:15:41;;;;;;;;;;;;;;;13.46;47.06;101121.03;5015836;28;7083;-74
2022/05/28 01:18:26;;;;;;;;;;;;;;;13.45;47.46;101123.53;5030447;28;6807;-74
2022/05/28 01:21:24;;;;;;;;;;;;;;;13.45;47.08;101123.53;5011516;28;7031;-74
2022/05/28 01:24:09;;;;;;;;;;;;;;;13.44;47.51;101125.25;5021900;28;6804;-76
2022/05/28 01:27:02;;;;;;;;;;;;;;;13.45;48.16;101114.13;5032264;28;6823;-76
2022/05/28 01:29:42;;;;;;;;;;;;;;;13.47;47.87;101116.75;5016065;28;6883;-75
2022/05/28 01:32:10;;;;;;;;;;;;;;;13.53;48.59;101109.34;5003448;28;7731;-75
2022/05/28 01:34:39;;;;;;;;;;;;;;;13.59;48.58;101108.72;5034044;28;6816;-75
2022/05/28 01:37:06;;;;;;;;;;;;;;;13.67;47.85;101106.53;5022031;28;7272;-75
2022/05/28 01:39:33;;;;;;;;;;;;;;;13.71;47.68;101111.91;5029572;28;6977;-75
2022/05/28 01:42:02;;;;;;;;;;;;;;;13.77;48.47;101107.84;4997933;28;6839;-75
2022/05/28 01:44:31;;;;;;;;;;;;;;;13.82;48.61;101099.50;5031119;28;6837;-74
2022/05/28 01:46:57;;;;;;;;;;;;;;;13.88;47.46;101096.31;5015527;28;6804;-74
2022/05/28 01:49:25;;;;;;;;;;;;;;;13.94;48.35;101101.75;5028527;28;6879;-74
2022/05/28 01:51:57;;;;;;;;;;;;;;;14.00;48.04;101099.47;5029929;28;6896;-74
2022/05/28 01:54:30;;;;;;;;;;;;;;;14.07;48.32;101102.31;5033339;28;7197;-74
2022/05/28 01:56:57;;;;;;;;;;;;;;;14.14;48.50;101106.94;5014632;28;6998;-74
2022/05/28 01:59:27;;;;;;;;;;;;;;;14.23;47.96;101090.97;5016512;28;6808;-74
2022/05/28 02:01:56;;;;;;;;;;;;;;;14.28;48.46;101092.94;4996935;28;8111;-74
2022/05/28 02:04:21;;;;;;;;;;;;;;;14.30;47.30;101085.28;5005859;28;6820;-74
2022/05/28 02:06:47;;;;;;;;;;;;;;;14.33;47.48;101084.53;5013351;28;6803;-74
2022/05/28 02:09:21;;;;;;;;;;;;;;;14.31;47.56;101087.03;5012831;28;6807;-74
2022/05/28 02:12:23;;;;;;;;;;;;;;;14.30;47.97;101087.84;5013925;28;6819;-74
2022/05/28 02:15:09;;;;;;;;;;;;;;;14.28;47.78;101081.75;5018472;28;6911;-75
2022/05/28 02:17:52;;;;;;;;;;;;;;;14.29;48.41;101083.53;4996358;28;7955;-75
2022/05/28 02:20:43;;;;;;;;;;;;;;;14.30;47.68;101081.03;5014790;28;8032;-74
2022/05/28 02:23:27;;;;;;;;;;;;;;;14.36;48.49;101082.09;5014146;28;6990;-74
2022/05/28 02:26:11;;;;;;;;;;;;;;;14.41;48.30;101080.59;5010269;28;6899;-74
2022/05/28 02:28:39;;;;;;;;;;;;;;;14.47;48.16;101078.28;5014480;28;7273;-74
2022/05/28 02:31:19;;;;;;;;;;;;;;;14.52;48.11;101076.78;5028941;28;9497;-74
2022/05/28 02:33:45;;;;;;;;;;;;;;;14.53;47.31;101081.13;5026058;28;6811;-74
2022/05/28 02:36:14;;;;;;;;;;;;;;;14.53;48.07;101078.53;5020948;28;6832;-74
2022/05/28 02:38:40;;;;;;;;;;;;;;;14.48;47.46;101074.88;5008520;28;7087;-74
2022/05/28 02:41:06;;;;;;;;;;;;;;;14.44;47.35;101076.47;5012441;28;6854;-74
2022/05/28 02:43:32;;;;;;;;;;;;;;;14.41;47.30;101072.88;4994372;28;8015;-76
2022/05/28 02:46:00;;;;;;;;;;;;;;;14.38;47.43;101072.72;5026248;28;7056;-74
2022/05/28 02:48:26;;;;;;;;;;;;;;;14.35;47.58;101070.00;5027500;28;7039;-74
2022/05/28 02:50:51;;;;;;;;;;;;;;;14.36;48.42;101075.25;5014791;28;6808;-74
2022/05/28 02:53:17;;;;;;;;;;;;;;;14.38;48.37;101071.03;5017492;28;6804;-74
2022/05/28 02:55:43;;;;;;;;;;;;;;;14.41;48.52;101075.44;5018812;28;6871;-74
2022/05/28 02:58:09;;;;;;;;;;;;;;;14.41;48.29;101065.13;5017161;28;7019;-74
2022/05/28 03:00:34;;;;;;;;;;;;;;;14.41;48.31;101068.56;5000568;28;7914;-74
2022/05/28 03:03:00;;;;;;;;;;;;;;;14.41;48.45;101068.56;5005627;28;6922;-74
2022/05/28 03:05:26;;;;;;;;;;;;;;;14.42;48.36;101074.63;5016803;28;6833;-74
2022/05/28 03:07:52;;;;;;;;;;;;;;;14.42;47.36;101072.06;5031366;28;6827;-74
2022/05/28 03:10:18;;;;;;;;;;;;;;;14.42;47.72;101066.88;5033958;28;6800;-74
2022/05/28 03:12:43;;;;;;;;;;;;;;;14.42;47.45;101066.88;5032630;28;6791;-74
2022/05/28 03:15:11;;;;;;;;;;;;;;;14.41;47.55;101078.03;5017060;28;6779;-74
2022/05/28 03:17:37;;;;;;;;;;;;;;;14.38;47.46;101077.88;5032659;28;7179;-74
2022/05/28 03:20:05;;;;;;;;;;;;;;;14.35;47.60;101070.00;5015650;28;6998;-74
2022/05/28 03:22:31;;;;;;;;;;;;;;;14.29;47.82;101068.94;5021694;28;8082;-74
2022/05/28 03:24:57;;;;;;;;;;;;;;;14.24;48.16;101070.44;4998661;28;6886;-74
2022/05/28 03:27:24;;;;;;;;;;;;;;;14.21;47.99;101075.47;5033458;28;6804;-74
2022/05/28 03:29:49;;;;;;;;;;;;;;;14.17;48.19;101073.53;5019100;28;6804;-74
2022/05/28 03:32:15;;;;;;;;;;;;;;;14.14;48.86;101073.41;5016953;28;8723;-74
2022/05/28 03:34:41;;;;;;;;;;;;;;;14.11;48.48;101071.59;5016048;28;6807;-74
2022/05/28 03:37:06;;;;;;;;;;;;;;;14.08;48.13;101079.19;5018810;28;7413;-74
2022/05/28 03:39:32;;;;;;;;;;;;;;;14.06;49.07;101077.34;4983647;28;7247;-74
2022/05/28 03:41:58;;;;;;;;;;;;;;;14.06;48.97;101082.50;5031464;28;6934;-74
2022/05/28 03:44:23;;;;;;;;;;;;;;;14.05;48.93;101084.22;5018148;28;7205;-74
2022/05/28 03:46:49;;;;;;;;;;;;;;;14.06;48.93;101079.94;5016444;28;7041;-74
2022/05/28 03:49:29;;;;;;;;;;;;;;;14.09;49.46;101092.94;5017152;28;7952;-74
2022/05/28 03:51:56;;;;;;;;;;;;;;;14.11;49.35;101083.59;5001709;28;6827;-74
2022/05/28 03:54:22;;;;;;;;;;;;;;;14.13;49.01;101089.72;5012992;28;6815;-74
2022/05/28 03:56:53;;;;;;;;;;;;;;;14.13;48.22;101075.09;5005726;28;8174;-74
2022/05/28 03:59:18;;;;;;;;;;;;;;;14.14;48.33;101073.41;5022584;28;6958;-74
2022/05/28 04:01:44;;;;;;;;;;;;;;;14.15;48.76;101081.22;5022206;28;6938;-74
2022/05/28 04:04:10;;;;;;;;;;;;;;;14.16;48.65;101076.94;5031655;28;6808;-74
2022/05/28 04:06:37;;;;;;;;;;;;;;;14.18;49.19;101077.88;5017814;28;6834;-74
2022/05/28 04:09:05;;;;;;;;;;;;;;;14.20;49.77;101078.84;5030323;28;7292;-74
2022/05/28 04:11:31;;;;;;;;;;;;;;;14.22;49.75;101082.38;4998384;28;7915;-74
2022/05/28 04:13:56;;;;;;;;;;;;;;;14.24;48.69;101080.75;5022008;28;6804;-74
2022/05/28 04:16:26;;;;;;;;;;;;;;;14.28;49.13;101079.19;5011958;28;6847;-74
2022/05/28 04:18:51;;;;;;;;;;;;;;;14.35;49.86;101088.06;5031338;28;6831;-74
2022/05/28 04:21:17;;;;;;;;;;;;;;;14.50;49.68;101083.56;5017449;28;6802;-74
2022/05/28 04:23:43;;;;;;;;;;;;;;;14.69;50.48;101094.69;4999426;28;6995;-74
2022/05/28 04:26:08;;;;;;;;;;;;;;;14.94;50.59;101095.72;5030584;28;7325;-74
2022/05/28 04:28:34;;;;;;;;;;;;;;;15.20;50.31;101088.16;5018406;28;6811;-74
2022/05/28 04:31:00;;;;;;;;;;;;;;;15.51;50.51;101091.94;5015062;28;6803;-74
2022/05/28 04:33:26;;;;;;;;;;;;;;;15.78;49.86;101086.94;5016639;28;6799;-74
2022/05/28 04:35:51;;;;;;;;;;;;;;;16.05;48.99;101081.06;5017180;28;6803;-75
2022/05/28 04:38:17;;;;;;;;;;;;;;;16.29;48.96;101077.63;5012814;28;6811;-74
2022/05/28 04:40:43;;;;;;;;;;;;;;;16.53;48.91;101079.28;5000414;28;7840;-74
2022/05/28 04:43:08;;;;;;;;;;;;;;;16.76;48.40;101074.88;5018508;28;6855;-74
2022/05/28 04:45:34;;;;;;;;;;;;;;;16.98;48.15;101070.41;5017158;28;6823;-74
2022/05/28 04:48:00;;;;;;;;;;;;;;;17.14;47.67;101074.44;5012355;28;6898;-74
2022/05/28 04:50:26;;;;;;;;;;;;;;;17.32;47.45;101081.00;5014063;28;6892;-74
2022/05/28 04:52:51;;;;;;;;;;;;;;;17.52;47.64;101076.44;5011538;28;6819;-74
2022/05/28 04:55:17;;;;;;;;;;;;;;;17.73;47.60;101083.97;5030059;28;7268;-75
2022/05/28 04:57:43;;;;;;;;;;;;;;;17.97;47.11;101080.31;5009748;28;6969;-75
2022/05/28 05:00:17;;;;;;;;;;;;;;;18.22;46.77;101080.16;5017271;28;6799;-75
2022/05/28 05:02:43;;;;;;;;;;;;;;;18.46;46.92;101085.13;5008614;28;6823;-76
2022/05/28 05:05:10;;;;;;;;;;;;;;;18.74;46.20;101084.16;5011005;28;6847;-75
2022/05/28 05:07:36;;;;;;;;;;;;;;;19.05;46.09;101088.38;4995084;28;7549;-75
2022/05/28 05:10:03;;;;;;;;;;;;;;;19.31;45.32;101090.69;5005931;28;6808;-76
2022/05/28 05:12:29;;;;;;;;;;;;;;;19.55;44.68;101085.16;5025319;28;7935;-76
2022/05/28 05:14:54;;;;;;;;;;;;;;;19.75;44.64;101077.78;5010852;28;6923;-75
2022/05/28 05:17:20;;;;;;;;;;;;;;;19.95;44.04;101077.34;4993980;28;6812;-75
2022/05/28 05:19:46;;;;;;;;;;;;;;;20.14;44.29;101075.09;5009251;28;7605;-75
2022/05/28 05:22:11;;;;;;;;;;;;;;;20.32;44.15;101083.28;5012869;28;6945;-75
2022/05/28 05:24:37;;;;;;;;;;;;;;;20.53;43.60;101081.91;4995512;28;6879;-75
2022/05/28 05:27:04;;;;;;;;;;;;;;;20.73;43.21;101087.47;5012044;28;6795;-75
2022/05/28 05:29:31;;;;;;;;;;;;;;;20.93;43.16;101089.56;5014155;28;6800;-75
2022/05/28 05:31:56;;;;;;;;;;;;;;;21.11;42.90;101088.09;4993587;28;7031;-75
2022/05/28 05:34:23;;;;;;;;;;;;;;;21.25;42.26;101081.34;4992313;28;7109;-75
2022/05/28 05:36:49;;;;;;;;;;;;;;;21.32;42.16;101082.31;5027190;28;6888;-75
2022/05/28 05:39:15;;;;;;;;;;;;;;;21.42;42.11;101094.63;5008848;28;6804;-75
2022/05/28 05:41:43;;;;;;;;;;;;;;;21.51;41.67;101099.97;5011408;28;7555;-75
2022/05/28 05:44:09;;;;;;;;;;;;;;;21.55;41.07;101094.81;5013107;28;7006;-75
2022/05/28 05:46:40;;;;;;;;;;;;;;;21.45;40.70;101105.09;5008361;28;6974;-75
2022/05/28 05:49:06;;;;;;;;;;;;;;;21.26;40.40;101100.47;5029840;28;6891;-75
2022/05/28 05:51:32;;;;;;;;;;;;;;;21.02;40.39;101102.72;5006902;28;6808;-75
2022/05/28 05:53:57;;;;;;;;;;;;;;;20.72;40.60;101090.94;5015544;28;6875;-75
2022/05/28 05:56:23;;;;;;;;;;;;;;;20.39;40.53;101090.34;5008834;28;6811;-75
2022/05/28 05:58:49;;;;;;;;;;;;;;;20.12;40.83;101099.38;5014251;28;7283;-75
2022/05/28 06:01:14;;;;;;;;;;;;;;;19.91;41.05;101098.91;5016828;28;6799;-75
2022/05/28 06:03:44;;;;;;;;;;;;;;;19.72;41.35;101098.53;5016502;28;6799;-75
2022/05/28 06:06:16;;;;;;;;;;;;;;;19.54;41.25;101105.09;5027053;28;9956;-75
2022/05/28 06:08:43;;;;;;;;;;;;;;;19.37;41.21;101109.03;5010811;28;6872;-75
2022/05/28 06:11:08;;;;;;;;;;;;;;;19.23;41.23;101099.19;4994487;28;7162;-75
2022/05/28 06:13:35;;;;;;;;;;;;;;;19.09;41.80;101113.56;5013594;28;7231;-75
2022/05/28 06:16:01;;;;;;;;;;;;;;;18.95;41.61;101106.28;5012616;28;6800;-74
2022/05/28 06:18:27;;;;;;;;;;;;;;;18.85;42.01;101104.31;5028340;28;6815;-74
2022/05/28 06:20:54;;;;;;;;;;;;;;;18.76;42.16;101107.53;5006677;28;6942;-76
2022/05/28 06:23:20;;;;;;;;;;;;;;;18.71;42.45;101114.34;5026133;28;6827;-74
2022/05/28 06:25:46;;;;;;;;;;;;;;;18.67;42.44;101118.56;5028317;28;6799;-74
2022/05/28 06:28:11;;;;;;;;;;;;;;;18.63;43.02;101114.13;5013555;28;7728;-74
2022/05/28 06:30:37;;;;;;;;;;;;;;;18.63;42.90;101108.94;5012179;28;6882;-74
2022/05/28 06:33:03;;;;;;;;;;;;;;;18.70;43.32;101110.00;5023240;28;7716;-74
2022/05/28 06:35:33;;;;;;;;;;;;;;;18.83;43.51;101116.34;5028659;28;6791;-74
2022/05/28 06:37:59;;;;;;;;;;;;;;;18.95;43.56;101119.28;5013547;28;6847;-74
2022/05/28 06:40:25;;;;;;;;;;;;;;;19.04;43.49;101112.59;5007187;28;6800;-74
2022/05/28 06:42:51;;;;;;;;;;;;;;;19.09;43.34;101113.56;5028530;28;6799;-73
2022/05/28 06:45:18;;;;;;;;;;;;;;;19.17;43.17;101119.81;5014794;28;7002;-73
2022/05/28 06:47:45;;;;;;;;;;;;;;;19.22;42.85;101113.03;5004294;28;6799;-73
2022/05/28 06:52:58;;;;;;;;;;;;;;;19.35;43.29;101115.91;5008175;28;7078;-73
2022/05/28 06:55:24;;;;;;;;;;;;;;;19.37;42.74;101114.22;5008666;28;7284;-74
2022/05/28 06:57:51;;;;;;;;;;;;;;;19.36;42.88;101115.06;5006328;28;6784;-74
2022/05/28 07:00:18;;;;;;;;;;;;;;;19.29;43.01;101125.31;5012571;28;8141;-73
2022/05/28 07:02:43;;;;;;;;;;;;;;;19.37;43.07;101112.50;5027712;28;10367;-74
2022/05/28 07:05:15;;;;;;;;;;;;;;;19.62;43.33;101118.25;5027769;28;6870;-73
2022/05/28 07:07:42;;;;;;;;;;;;;;;19.97;43.35;101109.47;4995054;28;6959;-73
2022/05/28 07:10:09;;;;;;;;;;;;;;;20.40;43.19;101105.13;5029892;28;6808;-73
2022/05/28 07:12:35;;;;;;;;;;;;;;;20.90;42.37;101112.94;5012168;28;7411;-73
2022/05/28 07:15:01;;;;;;;;;;;;;;;21.27;41.48;101107.44;5015937;28;6823;-73
2022/05/28 07:17:27;;;;;;;;;;;;;;;21.56;41.01;101107.00;4990868;28;7006;-74
2022/05/28 07:19:53;;;;;;;;;;;;;;;21.64;40.10;101106.22;5006965;28;6788;-73
2022/05/28 07:22:18;;;;;;;;;;;;;;;21.51;39.45;101113.00;5008426;28;8124;-73
2022/05/28 07:24:44;;;;;;;;;;;;;;;21.31;39.24;101124.88;5012181;28;6882;-73
2022/05/28 07:27:11;;;;;;;;;;;;;;;21.17;39.46;101116.84;5013148;28;6816;-73
2022/05/28 07:29:38;;;;;;;;;;;;;;;21.12;39.64;101116.75;4996607;28;7022;-74
2022/05/28 07:32:05;;;;;;;;;;;;;;;21.20;39.99;101117.75;5012994;28;6800;-73
2022/05/28 07:34:30;;;;;;;;;;;;;;;21.26;38.94;101121.34;4995368;28;6803;-74
2022/05/28 07:36:56;;;;;;;;;;;;;;;21.23;38.36;101119.56;4994992;28;7139;-74
2022/05/28 07:39:21;;;;;;;;;;;;;;;21.22;38.37;101121.25;5018173;28;6784;-74
2022/05/28 07:41:48;;;;;;;;;;;;;;;21.35;38.51;101122.34;5014397;28;6796;-74
2022/05/28 07:44:14;;;;;;;;;;;;;;;21.45;38.26;101123.38;5016466;28;6804;-75
2022/05/28 07:46:40;;;;;;;;;;;;;;;21.53;37.87;101117.34;5011549;28;7911;-74
2022/05/28 07:49:07;;;;;;;;;;;;;;;21.58;37.90;101116.56;5029477;28;6886;-74
2022/05/28 07:51:34;;;;;;;;;;;;;;;21.78;37.76;101111.66;5011626;28;7096;-74
2022/05/28 07:53:59;;;;;;;;;;;;;;;22.07;37.35;101110.28;5014136;28;6804;-74
2022/05/28 07:56:25;;;;;;;;;;;;;;;22.29;37.23;101106.16;5011461;28;6804;-74
2022/05/28 07:58:51;;;;;;;;;;;;;;;22.58;36.96;101100.38;4995575;28;8388;-75
2022/05/28 08:01:39;;;;;;;;;;;;;;;22.92;36.98;101106.78;5025895;28;6945;-75
2022/05/28 08:04:07;;;;;;;;;;;;;;;23.28;36.72;101108.78;5016464;28;6819;-74
2022/05/28 08:06:33;;;;;;;;;;;;;;;23.49;36.07;101111.56;5026614;28;6804;-75
2022/05/28 08:09:00;;;;;;;;;;;;;;;23.44;35.46;101112.38;5016196;28;6815;-74
2022/05/28 08:11:26;;;;;;;;;;;;;;;23.22;35.36;101100.88;5031484;28;6811;-74
2022/05/28 08:13:53;;;;;;;;;;;;;;;22.94;35.10;101105.94;4995196;28;6780;-74
2022/05/28 08:16:19;;;;;;;;;;;;;;;22.75;35.69;101099.66;5003478;28;6792;-74
2022/05/28 08:18:45;;;;;;;;;;;;;;;22.80;35.58;101111.03;5032936;28;7292;-74
2022/05/28 08:23:56;;;;;;;;;;;;;;;22.88;34.97;101100.63;4999432;28;6903;-74
2022/05/28 08:26:22;;;;;;;;;;;;;;;22.75;35.28;101108.38;5017661;28;6823;-74
2022/05/28 08:28:50;;;;;;;;;;;;;;;22.75;35.08;101110.09;5001088;28;6808;-74
2022/05/28 08:31:18;;;;;;;;;;;;;;;22.64;34.11;101111.75;4981753;28;6792;-74
2022/05/28 08:33:45;;;;;;;;;;;;;;;22.69;35.08;101108.31;4998659;28;7152;-74
2022/05/28 08:36:11;;;;;;;;;;;;;;;23.14;34.41;101103.44;4997084;28;6820;-74
2022/05/28 08:38:37;;;;;;;;;;;;;;;23.38;34.27;101112.38;4999042;28;6828;-74
2022/05/28 08:41:19;;;;;;;;;;;;;;;23.54;34.36;101108.09;4996843;28;7051;-74
2022/05/28 08:44:02;;;;;;;;;;;;;;;23.68;32.91;101107.28;5016889;28;6808;-74
2022/05/28 08:46:34;;;;;;;;;;;;;;;23.54;32.04;101112.44;5014449;28;7446;-74
2022/05/28 08:49:04;;;;;;;;;;;;;;;23.37;32.27;101108.00;5026796;28;7070;-74
2022/05/28 08:51:35;;;;;;;;;;;;;;;23.38;32.78;101112.38;4984528;28;8135;-74
2022/05/28 08:54:10;;;;;;;;;;;;;;;23.84;32.39;101100.34;5017530;28;6831;-74
2022/05/28 08:56:38;;;;;;;;;;;;;;;24.66;32.69;101102.34;5017425;28;7687;-74
2022/05/28 08:59:13;;;;;;;;;;;;;;;25.60;31.41;101098.78;5017129;28;6815;-74
2022/05/28 09:01:41;;;;;;;;;;;;;;;26.18;29.69;101090.59;5015793;28;7212;-74
2022/05/28 09:04:19;;;;;;;;;;;;;;;26.51;29.04;101099.19;5033456;28;6819;-74
2022/05/28 09:06:55;;;;;;;;;;;;;;;26.78;28.64;101091.94;4997539;28;7190;-74
2022/05/28 09:09:44;;;;;;;;;;;;;;;27.11;28.68;101089.06;5014655;28;7936;-74
2022/05/28 09:12:18;;;;;;;;;;;;;;;27.36;28.25;101094.06;5014632;28;6994;-74
2022/05/28 09:14:44;;;;;;;;;;;;;;;27.07;27.70;101092.63;5032622;28;6887;-74
2022/05/28 09:17:39;;;;;;;;;;;;;;;26.51;28.30;101093.06;5017127;28;8284;-74
2022/05/28 09:20:20;;;;;;;;;;;;;;;26.55;28.38;101097.38;4999214;28;7119;-73
2022/05/28 09:22:46;;;;;;;;;;;;;;;26.98;28.37;101091.81;5017460;28;6807;-74
2022/05/28 09:25:13;;;;;;;;;;;;;;;27.10;27.42;101090.84;5013329;28;7450;-74
2022/05/28 09:27:59;;;;;;;;;;;;;;;26.65;27.55;101083.28;5017977;28;6815;-74
2022/05/28 09:31:06;;;;;;;;;;;;;;;25.89;27.76;101094.25;5017123;28;6827;-74
2022/05/28 09:34:30;;;;;;;;;;;;;;;24.92;28.51;101088.41;5017793;28;6827;-74
2022/05/28 09:37:21;;;;;;;;;;;;;;;24.89;28.69;101085.75;4977089;28;7016;-73
2022/05/28 09:40:19;;;;;;;;;;;;;;;25.50;29.33;101089.19;5015178;28;6903;-74
2022/05/28 09:43:03;;;;;;;;;;;;;;;25.78;28.26;101078.56;5022374;28;6811;-73
2022/05/28 09:45:41;;;;;;;;;;;;;;;25.65;27.88;101083.88;5017181;28;6891;-74
2022/05/28 09:48:22;;;;;;;;;;;;;;;25.52;28.03;101085.66;5011238;28;6916;-74
2022/05/28 09:50:48;;;;;;;;;;;;;;;25.27;27.91;101084.81;4999678;28;7699;-74
2022/05/28 09:56:41;;;;;;;;;;;;;;;24.38;28.71;101086.59;5013475;28;6903;-74
2022/05/28 09:59:35;;;;;;;;;;;;;;;24.57;29.02;101087.47;5024915;28;6799;-74
2022/05/28 10:02:27;;;;;;;;;;;;;;;24.61;28.71;101093.59;4983211;28;6812;-74
2022/05/28 10:05:20;;;;;;;;;;;;;;;24.36;28.75;101083.09;4993100;28;6820;-74
2022/05/28 10:07:52;;;;;;;;;;;;;;;24.33;29.09;101075.22;5010956;28;7131;-74
2022/05/28 10:10:23;;;;;;;;;;;;;;;24.92;28.95;101077.91;4992461;28;6832;-74
2022/05/28 10:12:50;;;;;;;;;;;;;;;25.49;27.98;101071.63;5009254;28;6973;-74
2022/05/28 10:15:23;;;;;;;;;;;;;;;25.75;27.68;101070.69;5020624;28;7239;-74
2022/05/28 10:18:09;;;;;;;;;;;;;;;26.19;27.55;101066.09;5009301;28;6907;-74
2022/05/28 10:20:35;;;;;;;;;;;;;;;26.93;27.14;101066.44;5025183;28;6891;-74
2022/05/28 10:23:15;;;;;;;;;;;;;;;27.73;26.86;101064.69;5024736;28;7286;-74
2022/05/28 10:25:49;;;;;;;;;;;;;;;27.95;25.94;101046.81;5024506;28;6915;-74
2022/05/28 10:28:29;;;;;;;;;;;;;;;27.55;25.85;101061.41;4991066;28;7953;-74
2022/05/28 10:30:56;;;;;;;;;;;;;;;27.38;26.34;101055.44;5025881;28;8714;-74
2022/05/28 10:33:29;;;;;;;;;;;;;;;27.74;25.76;101050.66;5025107;28;7055;-74
2022/05/28 10:36:07;;;;;;;;;;;;;;;28.14;24.67;101047.44;5021964;28;7096;-75
2022/05/28 10:38:33;;;;;;;;;;;;;;;28.44;24.42;101046.13;4996785;28;6812;-75
2022/05/28 10:41:14;;;;;;;;;;;;;;;28.64;24.79;101041.38;5023150;28;6819;-75
2022/05/28 10:43:40;;;;;;;;;;;;;;;28.85;24.52;101043.72;5005553;28;6824;-75
2022/05/28 10:46:42;;;;;;;;;;;;;;;29.07;25.00;101046.78;4998687;28;6812;-76
2022/05/28 10:49:37;;;;;;;;;;;;;;;29.68;24.36;101038.56;5026163;28;7009;-76
2022/05/28 10:52:33;;;;;;;;;;;;;;;30.33;23.40;101034.44;5011920;28;6819;-75
2022/05/28 10:55:36;;;;;;;;;;;;;;;30.69;22.49;101030.03;5029816;28;6811;-75
2022/05/28 10:58:16;;;;;;;;;;;;;;;30.98;22.39;101031.91;5003112;28;6819;-74
2022/05/28 11:00:57;;;;;;;;;;;;;;;30.67;21.80;101037.16;5010915;28;7039;-74
2022/05/28 11:03:35;;;;;;;;;;;;;;;30.60;22.27;101024.06;4992972;28;6824;-74
2022/05/28 11:06:21;;;;;;;;;;;;;;;30.72;21.55;101027.34;5012782;28;6819;-74
2022/05/28 11:09:15;;;;;;;;;;;;;;;30.72;22.20;101019.41;5028408;28;7129;-75
2022/05/28 11:12:22;;;;;;;;;;;;;;;30.79;22.48;101020.94;5011024;28;6808;-75
2022/05/28 11:15:26;;;;;;;;;;;;;;;30.57;22.37;101010.91;5020984;28;8122;-75
2022/05/28 11:18:17;;;;;;;;;;;;;;;30.75;22.04;101014.88;4982005;28;6899;-75
2022/05/28 11:21:31;;;;;;;;;;;;;;;30.35;22.28;101007.97;5019271;28;7078;-75
2022/05/28 11:24:53;;;;;;;;;;;;;;;29.90;22.90;101012.53;5014943;28;6792;-75
2022/05/28 11:27:50;;;;;;;;;;;;;;;30.05;22.98;101005.16;4982555;28;7046;-75
2022/05/28 11:30:23;;;;;;;;;;;;;;;30.05;21.93;101007.81;5014646;28;7180;-75
2022/05/28 11:33:31;;;;;;;;;;;;;;;29.43;22.08;101003.88;5015377;28;6815;-75
2022/05/28 11:36:36;;;;;;;;;;;;;;;28.36;22.47;101010.22;5023124;28;6820;-74
2022/05/28 11:39:32;;;;;;;;;;;;;;;27.37;23.66;101008.97;5006877;28;7031;-74
2022/05/28 11:42:33;;;;;;;;;;;;;;;26.76;23.79;101013.13;5010141;28;8443;-74
2022/05/28 11:45:10;;;;;;;;;;;;;;;26.65;23.89;100999.16;5008532;28;7897;-74
2022/05/28 11:48:09;;;;;;;;;;;;;;;26.51;24.08;100998.44;5028896;28;7030;-74
2022/05/28 11:53:52;;;;;;;;;;;;;;;26.28;24.94;100991.66;5011280;28;8014;-75
2022/05/28 11:56:24;;;;;;;;;;;;;;;26.99;24.94;100983.09;5012600;28;6819;-75
2022/05/28 11:59:22;;;;;;;;;;;;;;;27.93;24.63;100968.75;5017866;28;7891;-75
2022/05/28 12:02:04;;;;;;;;;;;;;;;28.91;23.66;100969.72;5016278;28;6816;-74
2022/05/28 12:04:30;;;;;;;;;;;;;;;29.63;22.66;100963.84;5033903;28;6804;-75
2022/05/28 12:07:09;;;;;;;;;;;;;;;30.35;22.20;100974.47;5028822;28;6891;-75
2022/05/28 12:09:44;;;;;;;;;;;;;;;31.03;22.24;100961.19;5031758;28;7026;-75
2022/05/28 12:12:35;;;;;;;;;;;;;;;31.62;21.91;100958.59;4988309;28;7078;-75
2022/05/28 12:15:16;;;;;;;;;;;;;;;31.98;21.13;100953.06;4987195;28;7409;-75
2022/05/28 12:18:23;;;;;;;;;;;;;;;31.57;20.48;100955.22;5015212;28;6866;-75
2022/05/28 12:20:58;;;;;;;;;;;;;;;30.36;21.02;100959.47;5020185;28;6808;-74
2022/05/28 12:23:42;;;;;;;;;;;;;;;29.14;21.41;100961.34;5008646;28;6816;-76
2022/05/28 12:29:54;;;;;;;;;;;;;;;26.45;23.34;100960.81;5008637;28;7265;-74
2022/05/28 12:32:25;;;;;;;;;;;;;;;25.75;23.80;100958.72;5000523;28;7240;-74
2022/05/28 12:34:50;;;;;;;;;;;;;;;25.44;23.99;100950.97;5028354;28;6816;-75
2022/05/28 12:37:30;;;;;;;;;;;;;;;25.57;24.80;100962.31;5012832;28;6812;-74
2022/05/28 12:40:23;;;;;;;;;;;;;;;26.21;24.61;100946.13;4995048;28;8151;-76
2022/05/28 12:42:49;;;;;;;;;;;;;;;27.16;23.93;100937.31;5015520;28;8123;-74
2022/05/28 12:45:24;;;;;;;;;;;;;;;27.99;23.70;100926.47;4989622;28;7212;-68
2022/05/28 12:47:49;;;;;;;;;;;;;;;28.59;22.50;100937.78;5010657;28;7088;-71
2022/05/28 12:51:14;;;;;;;;;;;;;;;28.35;22.56;100942.59;5010615;28;6804;-77
2022/05/28 12:54:30;;;;;;;;;;;;;;;27.21;23.00;100942.50;4983559;28;7246;-77
2022/05/28 12:57:27;;;;;;;;;;;;;;;26.22;23.30;100949.66;4957483;28;7158;-78
2022/05/28 13:00:14;;;;;;;;;;;;;;;25.34;23.83;100950.16;5012059;28;7213;-77
2022/05/28 13:02:44;;;;;;;;;;;;;;;24.86;24.40;100946.84;5013521;28;8829;-77
2022/05/28 13:05:43;;;;;;;;;;;;;;;24.60;24.50;100947.72;5017018;28;8380;-76
2022/05/28 13:08:17;;;;;;;;;;;;;;;24.71;25.47;100937.22;5021511;28;7213;-77
2022/05/28 13:10:55;;;;;;;;;;;;;;;25.30;25.54;100926.56;5010480;28;6896;-77
2022/05/28 13:14:29;;;;;;;;;;;;;;;26.21;25.39;100927.75;4994613;28;7492;-78
2022/05/28 13:17:07;;;;;;;;;;;;;;;27.06;24.16;100912.88;5011375;28;6844;-78
2022/05/28 13:20:23;;;;;;;;;;;;;;;27.43;24.04;100915.00;5030111;28;7264;-77
2022/05/28 13:23:10;;;;;;;;;;;;;;;27.47;23.40;100921.09;5012501;28;7791;-78
2022/05/28 13:26:28;;;;;;;;;;;;;;;26.93;23.20;100917.41;5012807;28;6851;-77
2022/05/28 13:29:40;;;;;;;;;;;;;;;26.27;23.85;100918.94;4954964;28;6996;-77
2022/05/28 13:32:34;;;;;;;;;;;;;;;25.73;24.01;100920.22;5002000;28;7231;-76
2022/05/28 13:35:09;;;;;;;;;;;;;;;25.46;24.13;100924.72;4996622;28;8298;-78
2022/05/28 13:37:37;;;;;;;;;;;;;;;25.26;24.16;100909.13;5027369;28;7256;-76